createdAt,value
2022-12-01T00:01:11.824Z,96371.97
2022-12-01T00:03:38.891Z,96379.84
2022-12-01T00:06:06.999Z,96376.06
2022-12-01T00:08:34.800Z,96380.13
2022-12-01T00:11:10.231Z,96377.69
2022-12-01T00:13:37.314Z,96375.78
2022-12-01T00:16:13.176Z,96383.66
2022-12-01T00:18:39.883Z,96376.88
2022-12-01T00:21:06.809Z,96377.16
2022-12-01T00:23:33.458Z,96373.88
2022-12-01T00:26:06.383Z,96373.59
2022-12-01T00:28:32.979Z,96367.38
2022-12-01T00:31:00.274Z,96375.25
2022-12-01T00:33:26.928Z,96379.06
2022-12-01T00:35:59.972Z,96374.16
2022-12-01T00:38:26.933Z,96366.56
2022-12-01T00:40:53.595Z,96380.13
2022-12-01T00:43:20.486Z,96376.06
2022-12-01T00:45:47.423Z,96376.59
2022-12-01T00:48:14.069Z,96377.16
2022-12-01T00:50:41.215Z,96379.34
2022-12-01T00:53:07.953Z,96375.28
2022-12-01T00:55:34.652Z,96367.13
2022-12-01T00:58:01.310Z,96369.81
2022-12-01T01:00:28.057Z,96377.72
2022-12-01T01:02:54.789Z,96366.88
2022-12-01T01:05:21.471Z,96375.28
2022-12-01T01:07:48.109Z,96379.09
2022-12-01T01:10:14.771Z,96383.41
2022-12-01T01:12:41.390Z,96378.28
2022-12-01T01:15:08.458Z,96379.34
2022-12-01T01:17:35.055Z,96385.88
2022-12-01T01:20:01.787Z,96386.94
2022-12-01T01:22:28.463Z,96392.13
2022-12-01T01:24:55.034Z,96389.94
2022-12-01T01:27:21.602Z,96394.00
2022-12-01T01:29:48.465Z,96389.94
2022-12-01T01:32:15.250Z,96390.22
2022-12-01T01:34:41.866Z,96388.31
2022-12-01T01:37:08.477Z,96389.13
2022-12-01T01:39:35.030Z,96391.03
2022-12-01T01:42:01.578Z,96399.72
2022-12-01T01:44:47.270Z,96388.59
2022-12-01T01:47:15.259Z,96394.59
2022-12-01T01:49:43.021Z,96389.16
2022-12-01T01:52:09.989Z,96397.81
2022-12-01T01:54:44.513Z,96399.72
2022-12-01T01:57:15.136Z,96389.69
2022-12-01T01:59:50.465Z,96389.94
2022-12-01T02:02:17.660Z,96393.47
2022-12-01T02:04:52.548Z,96391.88
2022-12-01T02:07:20.038Z,96394.88
2022-12-01T02:09:47.175Z,96400.53
2022-12-01T02:12:17.078Z,96386.16
2022-12-01T02:15:08.712Z,96392.41
2022-12-01T02:17:55.700Z,96390.78
2022-12-01T02:20:52.423Z,96398.38
2022-12-01T02:24:04.848Z,96390.25
2022-12-01T02:27:03.740Z,96386.19
2022-12-01T02:29:52.158Z,96382.66
2022-12-01T02:32:43.471Z,96384.84
2022-12-01T02:35:22.633Z,96380.75
2022-12-01T02:38:07.289Z,96384.28
2022-12-01T02:40:47.416Z,96378.84
2022-12-01T02:43:30.797Z,96382.66
2022-12-01T02:46:12.294Z,96377.75
2022-12-01T02:48:43.033Z,96375.31
2022-12-01T02:51:14.712Z,96381.81
2022-12-01T02:53:41.629Z,96381.81
2022-12-01T02:56:11.683Z,96379.91
2022-12-01T02:58:38.555Z,96382.38
2022-12-01T03:01:45.024Z,96378.59
2022-12-01T03:04:20.627Z,96384.81
2022-12-01T03:07:08.233Z,96378.03
2022-12-01T03:09:42.723Z,96377.22
2022-12-01T03:12:31.142Z,96372.88
2022-12-01T03:14:57.782Z,96372.06
2022-12-01T03:17:34.545Z,96369.63
2022-12-01T03:20:13.050Z,96367.19
2022-12-01T03:22:46.744Z,96376.97
2022-12-01T03:25:15.232Z,96371.78
2022-12-01T03:28:06.655Z,96374.78
2022-12-01T03:30:36.687Z,96372.06
2022-12-01T03:33:09.740Z,96371.00
2022-12-01T03:35:47.062Z,96366.91
2022-12-01T03:38:24.483Z,96372.91
2022-12-01T03:40:55.018Z,96378.31
2022-12-01T03:43:28.398Z,96366.91
2022-12-01T03:46:17.955Z,96376.16
2022-12-01T03:48:44.634Z,96380.50
2022-12-01T03:51:44.576Z,96379.94
2022-12-01T03:54:26.190Z,96375.06
2022-12-01T03:56:57.834Z,96369.38
2022-12-01T03:59:26.521Z,96368.00
2022-12-01T04:01:53.342Z,96373.16
2022-12-01T04:04:20.141Z,96375.63
2022-12-01T04:06:50.295Z,96361.50
2022-12-01T04:09:17.143Z,96373.44
2022-12-01T04:12:02.119Z,96372.91
2022-12-01T04:14:30.166Z,96368.00
2022-12-01T04:16:56.765Z,96369.09
2022-12-01T04:19:23.373Z,96372.34
2022-12-01T04:21:50.061Z,96381.59
2022-12-01T04:24:16.802Z,96383.22
2022-12-01T04:26:44.483Z,96374.53
2022-12-01T04:29:12.102Z,96376.69
2022-12-01T04:31:39.051Z,96382.94
2022-12-01T04:34:06.460Z,96382.91
2022-12-01T04:36:34.600Z,96391.59
2022-12-01T04:39:01.794Z,96382.91
2022-12-01T04:41:28.468Z,96389.69
2022-12-01T04:43:56.105Z,96386.41
2022-12-01T04:46:23.908Z,96386.44
2022-12-01T04:48:50.857Z,96389.69
2022-12-01T04:51:17.883Z,96387.22
2022-12-01T04:53:44.668Z,96394.56
2022-12-01T04:56:11.477Z,96392.94
2022-12-01T04:58:38.945Z,96390.22
2022-12-01T05:01:11.940Z,96389.41
2022-12-01T05:03:40.768Z,96394.81
2022-12-01T05:06:10.148Z,96402.16
2022-12-01T05:08:36.848Z,96398.63
2022-12-01T05:11:05.037Z,96399.19
2022-12-01T05:13:31.644Z,96393.75
2022-12-01T05:16:06.738Z,96391.31
2022-12-01T05:18:34.255Z,96393.50
2022-12-01T05:21:01.260Z,96394.31
2022-12-01T05:23:30.600Z,96396.75
2022-12-01T05:25:57.364Z,96396.47
2022-12-01T05:28:25.692Z,96394.59
2022-12-01T05:30:54.201Z,96390.22
2022-12-01T05:33:22.939Z,96390.75
2022-12-01T05:35:50.312Z,96386.97
2022-12-01T05:38:17.830Z,96386.44
2022-12-01T05:40:53.411Z,96390.75
2022-12-01T05:43:28.581Z,96385.34
2022-12-01T05:45:56.009Z,96392.41
2022-12-01T05:48:23.563Z,96386.41
2022-12-01T05:50:50.130Z,96395.94
2022-12-01T05:53:17.562Z,96385.34
2022-12-01T05:55:44.432Z,96383.44
2022-12-01T05:58:11.834Z,96391.28
2022-12-01T06:00:45.312Z,96390.22
2022-12-01T06:03:12.233Z,96397.00
2022-12-01T06:05:38.884Z,96388.56
2022-12-01T06:08:05.612Z,96396.22
2022-12-01T06:10:32.388Z,96394.91
2022-12-01T06:12:59.024Z,96389.13
2022-12-01T06:15:26.252Z,96402.13
2022-12-01T06:17:53.015Z,96397.00
2022-12-01T06:20:19.664Z,96399.44
2022-12-01T06:22:46.308Z,96405.41
2022-12-01T06:25:12.877Z,96411.38
2022-12-01T06:27:39.531Z,96409.50
2022-12-01T06:30:07.060Z,96401.88
2022-12-01T06:32:33.755Z,96403.22
2022-12-01T06:35:00.429Z,96405.97
2022-12-01T06:37:28.307Z,96410.03
2022-12-01T06:39:55.061Z,96407.53
2022-12-01T06:42:21.965Z,96410.00
2022-12-01T06:44:50.004Z,96411.34
2022-12-01T06:47:16.688Z,96411.06
2022-12-01T06:49:44.089Z,96413.53
2022-12-01T06:52:10.740Z,96415.44
2022-12-01T06:54:37.691Z,96415.97
2022-12-01T06:57:05.014Z,96415.41
2022-12-01T06:59:31.995Z,96431.69
2022-12-01T07:01:59.157Z,96423.84
2022-12-01T07:04:25.974Z,96428.47
2022-12-01T07:06:52.527Z,96426.84
2022-12-01T07:09:19.294Z,96438.47
2022-12-01T07:11:45.990Z,96443.66
2022-12-01T07:14:24.535Z,96434.41
2022-12-01T07:16:51.360Z,96440.69
2022-12-01T07:19:18.325Z,96443.38
2022-12-01T07:21:45.090Z,96450.44
2022-12-01T07:24:14.503Z,96446.06
2022-12-01T07:26:42.123Z,96454.50
2022-12-01T07:29:11.774Z,96447.44
2022-12-01T07:31:38.973Z,96456.97
2022-12-01T07:34:06.652Z,96453.69
2022-12-01T07:36:33.343Z,96453.66
2022-12-01T07:39:00.561Z,96456.91
2022-12-01T07:41:27.178Z,96452.03
2022-12-01T07:43:55.369Z,96450.09
2022-12-01T07:46:25.117Z,96443.88
2022-12-01T07:48:53.838Z,96449.03
2022-12-01T07:51:21.712Z,96453.88
2022-12-01T07:53:49.646Z,96459.59
2022-12-01T07:56:17.251Z,96457.72
2022-12-01T07:58:44.109Z,96458.00
2022-12-01T08:01:14.912Z,96454.78
2022-12-01T08:03:42.469Z,96452.31
2022-12-01T08:06:10.279Z,96456.44
2022-12-01T08:08:39.191Z,96449.94
2022-12-01T08:11:09.772Z,96455.59
2022-12-01T08:13:36.532Z,96461.31
2022-12-01T08:16:05.300Z,96454.50
2022-12-01T08:18:35.284Z,96449.91
2022-12-01T08:21:02.188Z,96449.91
2022-12-01T08:23:28.960Z,96453.44
2022-12-01T08:25:57.536Z,96443.94
2022-12-01T08:28:24.303Z,96455.63
2022-12-01T08:30:50.958Z,96457.28
2022-12-01T08:33:17.649Z,96454.28
2022-12-01T08:35:44.248Z,96454.28
2022-12-01T08:38:11.237Z,96454.56
2022-12-01T08:40:37.942Z,96452.66
2022-12-01T08:43:05.388Z,96454.84
2022-12-01T08:45:32.052Z,96464.06
2022-12-01T08:47:59.921Z,96459.75
2022-12-01T08:50:27.746Z,96463.53
2022-12-01T08:52:54.666Z,96465.72
2022-12-01T08:55:22.452Z,96466.25
2022-12-01T08:57:49.081Z,96468.97
2022-12-01T09:00:16.682Z,96457.31
2022-12-01T09:02:43.329Z,96459.75
2022-12-01T09:05:10.500Z,96464.41
2022-12-01T09:07:37.169Z,96469.25
2022-12-01T09:10:04.938Z,96460.88
2022-12-01T09:12:31.690Z,96471.19
2022-12-01T09:14:58.748Z,96460.34
2022-12-01T09:17:25.361Z,96459.53
2022-12-01T09:19:52.408Z,96465.03
2022-12-01T09:22:19.215Z,96470.50
2022-12-01T09:24:45.913Z,96470.75
2022-12-01T09:27:13.271Z,96471.31
2022-12-01T09:29:39.958Z,96470.81
2022-12-01T09:32:06.523Z,96479.53
2022-12-01T09:34:33.137Z,96472.47
2022-12-01T09:36:59.904Z,96474.09
2022-12-01T09:39:26.645Z,96468.91
2022-12-01T09:42:08.756Z,96473.00
2022-12-01T09:44:41.371Z,96478.16
2022-12-01T09:47:19.289Z,96475.19
2022-12-01T09:50:06.981Z,96464.84
2022-12-01T09:52:40.823Z,96471.91
2022-12-01T09:55:13.794Z,96472.16
2022-12-01T09:57:41.569Z,96465.66
2022-12-01T10:00:16.745Z,96467.00
2022-12-01T10:03:01.644Z,96476.22
2022-12-01T10:05:35.443Z,96472.44
2022-12-01T10:08:06.018Z,96461.31
2022-12-01T10:10:39.726Z,96458.34
2022-12-01T10:13:26.974Z,96457.81
2022-12-01T10:16:18.511Z,96450.22
2022-12-01T10:19:01.779Z,96447.50
2022-12-01T10:21:35.535Z,96449.69
2022-12-01T10:24:33.933Z,96441.78
2022-12-01T10:27:09.464Z,96445.31
2022-12-01T10:29:45.044Z,96446.66
2022-12-01T10:32:20.344Z,96443.69
2022-12-01T10:34:48.394Z,96455.09
2022-12-01T10:37:27.709Z,96448.84
2022-12-01T10:39:55.688Z,96445.03
2022-12-01T10:42:37.503Z,96446.13
2022-12-01T10:45:07.927Z,96444.22
2022-12-01T10:47:34.619Z,96443.94
2022-12-01T10:50:03.909Z,96446.41
2022-12-01T10:52:30.446Z,96442.31
2022-12-01T10:54:57.075Z,96437.72
2022-12-01T10:57:24.015Z,96446.66
2022-12-01T11:00:08.752Z,96448.84
2022-12-01T11:02:35.701Z,96443.94
2022-12-01T11:05:06.090Z,96451.28
2022-12-01T11:07:36.130Z,96446.66
2022-12-01T11:10:02.775Z,96433.34
2022-12-01T11:12:29.774Z,96427.63
2022-12-01T11:14:58.419Z,96425.19
2022-12-01T11:17:41.405Z,96424.94
2022-12-01T11:20:40.991Z,96424.38
2022-12-01T11:23:24.542Z,96426.03
2022-12-01T11:25:59.469Z,96426.84
2022-12-01T11:28:27.168Z,96424.13
2022-12-01T11:31:02.744Z,96420.84
2022-12-01T11:33:30.993Z,96417.59
2022-12-01T11:35:58.094Z,96418.94
2022-12-01T11:38:34.020Z,96415.97
2022-12-01T11:41:00.865Z,96407.28
2022-12-01T11:43:36.616Z,96417.63
2022-12-01T11:46:07.880Z,96407.81
2022-12-01T11:48:36.451Z,96405.94
2022-12-01T11:51:24.434Z,96405.13
2022-12-01T11:54:06.125Z,96394.47
2022-12-01T11:56:32.706Z,96396.41
2022-12-01T11:59:03.400Z,96407.84
2022-12-01T12:01:41.463Z,96400.19
2022-12-01T12:04:49.793Z,96396.94
2022-12-01T12:07:47.829Z,96395.84
2022-12-01T12:10:32.989Z,96393.13
2022-12-01T12:13:15.222Z,96389.31
2022-12-01T12:16:05.637Z,96396.66
2022-12-01T12:19:06.577Z,96397.47
2022-12-01T12:22:00.879Z,96396.94
2022-12-01T12:24:53.146Z,96382.53
2022-12-01T12:27:51.427Z,96387.97
2022-12-01T12:30:26.285Z,96387.69
2022-12-01T12:33:17.187Z,96386.34
2022-12-01T12:36:02.704Z,96373.56
2022-12-01T12:38:52.166Z,96381.16
2022-12-01T12:41:29.759Z,96381.44
2022-12-01T12:44:08.245Z,96383.34
2022-12-01T12:46:53.927Z,96381.16
2022-12-01T12:49:31.984Z,96384.16
2022-12-01T12:52:08.418Z,96390.41
2022-12-01T12:54:38.673Z,96382.81
2022-12-01T12:57:19.448Z,96388.78
2022-12-01T12:59:54.954Z,96381.44
2022-12-01T13:02:33.062Z,96377.91
2022-12-01T13:05:05.908Z,96380.63
2022-12-01T13:07:35.148Z,96374.66
2022-12-01T13:10:37.177Z,96373.81
2022-12-01T13:13:18.218Z,96370.84
2022-12-01T13:15:46.809Z,96376.28
2022-12-01T13:18:28.417Z,96382.53
2022-12-01T13:20:57.497Z,96370.28
2022-12-01T13:23:24.763Z,96376.56
2022-12-01T13:25:55.141Z,96373.81
2022-12-01T13:28:35.200Z,96365.94
2022-12-01T13:31:07.447Z,96361.59
2022-12-01T13:33:36.340Z,96349.63
2022-12-01T13:39:06.680Z,96346.38
2022-12-01T13:41:38.629Z,96341.47
2022-12-01T13:44:39.327Z,96347.19
2022-12-01T13:47:08.970Z,96347.72
2022-12-01T13:49:40.533Z,96354.25
2022-12-01T13:52:22.458Z,96344.19
2022-12-01T13:55:13.423Z,96350.19
2022-12-01T13:58:14.239Z,96338.22
2022-12-01T14:00:41.784Z,96346.38
2022-12-01T14:03:19.245Z,96345.81
2022-12-01T14:05:57.280Z,96337.69
2022-12-01T14:08:44.222Z,96342.56
2022-12-01T14:11:23.730Z,96340.38
2022-12-01T14:14:00.030Z,96341.19
2022-12-01T14:16:52.976Z,96345.56
2022-12-01T14:19:28.287Z,96346.09
2022-12-01T14:21:55.051Z,96346.63
2022-12-01T14:24:31.885Z,96348.22
2022-12-01T14:26:58.516Z,96349.31
2022-12-01T14:29:33.834Z,96343.31
2022-12-01T14:32:00.367Z,96346.31
2022-12-01T14:34:31.517Z,96345.78
2022-12-01T14:37:13.104Z,96342.50
2022-12-01T14:40:13.074Z,96347.94
2022-12-01T14:43:09.404Z,96342.50
2022-12-01T14:45:45.376Z,96344.38
2022-12-01T14:48:18.516Z,96347.91
2022-12-01T14:50:51.390Z,96340.84
2022-12-01T14:53:36.314Z,96353.06
2022-12-01T14:56:12.896Z,96354.41
2022-12-01T14:58:50.394Z,96344.63
2022-12-01T15:01:17.094Z,96349.53
2022-12-01T15:03:53.595Z,96353.88
2022-12-01T15:06:23.207Z,96340.56
2022-12-01T15:12:00.519Z,96338.91
2022-12-01T15:14:47.183Z,96336.47
2022-12-01T15:17:37.161Z,96340.25
2022-12-01T15:20:05.182Z,96340.78
2022-12-01T15:22:33.704Z,96346.25
2022-12-01T15:25:14.978Z,96351.91
2022-12-01T15:27:43.189Z,96350.56
2022-12-01T15:30:14.099Z,96349.47
2022-12-01T15:32:45.821Z,96344.56
2022-12-01T15:35:20.641Z,96352.72
2022-12-01T15:37:47.702Z,96352.16
2022-12-01T15:43:23.593Z,96353.47
2022-12-01T15:45:58.827Z,96355.38
2022-12-01T15:48:34.297Z,96365.13
2022-12-01T15:51:09.296Z,96355.91
2022-12-01T15:53:40.089Z,96362.09
2022-12-01T15:56:09.950Z,96361.81
2022-12-01T15:58:43.250Z,96372.66
2022-12-01T16:01:20.933Z,96367.25
2022-12-01T16:03:50.309Z,96365.09
2022-12-01T16:06:17.899Z,96366.69
2022-12-01T16:08:57.305Z,96361.53
2022-12-01T16:11:24.068Z,96360.72
2022-12-01T16:14:08.137Z,96354.44
2022-12-01T16:16:34.691Z,96361.50
2022-12-01T16:19:26.609Z,96362.28
2022-12-01T16:22:03.319Z,96353.38
2022-12-01T16:24:32.058Z,96354.97
2022-12-01T16:27:04.840Z,96359.31
2022-12-01T16:29:47.420Z,96359.84
2022-12-01T16:32:21.763Z,96357.13
2022-12-01T16:34:51.414Z,96360.38
2022-12-01T16:37:18.470Z,96363.91
2022-12-01T16:39:45.092Z,96370.41
2022-12-01T16:42:14.410Z,96360.63
2022-12-01T16:44:43.716Z,96361.13
2022-12-01T16:47:20.552Z,96362.22
2022-12-01T16:49:47.311Z,96357.59
2022-12-01T16:55:01.131Z,96360.06
2022-12-01T16:57:27.781Z,96362.47
2022-12-01T16:59:54.294Z,96370.88
2022-12-01T17:02:20.975Z,96369.25
2022-12-01T17:04:47.887Z,96372.50
2022-12-01T17:07:14.781Z,96375.50
2022-12-01T17:09:41.285Z,96376.81
2022-12-01T17:12:07.981Z,96378.97
2022-12-01T17:14:35.767Z,96378.72
2022-12-01T17:17:02.290Z,96393.66
2022-12-01T17:19:28.830Z,96396.63
2022-12-01T17:21:57.014Z,96401.50
2022-12-01T17:24:23.864Z,96396.59
2022-12-01T17:26:50.446Z,96395.25
2022-12-01T17:29:17.012Z,96406.09
2022-12-01T17:31:43.599Z,96410.44
2022-12-01T17:34:10.220Z,96410.72
2022-12-01T17:36:36.820Z,96405.81
2022-12-01T17:39:03.605Z,96404.44
2022-12-01T17:41:35.849Z,96401.72
2022-12-01T17:44:04.001Z,96395.19
2022-12-01T17:46:31.397Z,96398.97
2022-12-01T17:48:59.329Z,96396.53
2022-12-01T17:51:26.026Z,96397.88
2022-12-01T17:53:53.902Z,96401.31
2022-12-01T17:56:20.426Z,96392.78
2022-12-01T17:58:49.352Z,96396.47
2022-12-01T18:01:18.496Z,96388.31
2022-12-01T18:03:45.738Z,96386.41
2022-12-01T18:06:13.361Z,96386.34
2022-12-01T18:08:40.958Z,96379.03
2022-12-01T18:11:11.123Z,96375.75
2022-12-01T18:13:39.476Z,96365.19
2022-12-01T18:16:11.814Z,96369.72
2022-12-01T18:18:38.771Z,96375.16
2022-12-01T18:21:10.430Z,96372.44
2022-12-01T18:23:38.506Z,96380.56
2022-12-01T18:26:12.259Z,96383.84
2022-12-01T18:28:42.187Z,96394.69
2022-12-01T18:31:11.532Z,96389.78
2022-12-01T18:33:40.389Z,96393.28
2022-12-01T18:36:13.645Z,96404.13
2022-12-01T18:38:40.870Z,96407.66
2022-12-01T18:41:07.885Z,96406.84
2022-12-01T18:43:34.477Z,96413.59
2022-12-01T18:46:03.617Z,96405.50
2022-12-01T18:48:30.698Z,96409.81
2022-12-01T18:51:02.910Z,96401.69
2022-12-01T18:53:29.550Z,96400.91
2022-12-01T18:55:56.105Z,96409.25
2022-12-01T18:58:22.843Z,96411.13
2022-12-01T19:00:49.705Z,96416.25
2022-12-01T19:03:16.416Z,96411.66
2022-12-01T19:05:42.936Z,96405.94
2022-12-01T19:08:09.519Z,96410.28
2022-12-01T19:10:36.149Z,96402.25
2022-12-01T19:13:02.692Z,96399.28
2022-12-01T19:15:29.811Z,96399.56
2022-12-01T19:17:56.429Z,96398.50
2022-12-01T19:20:23.087Z,96396.91
2022-12-01T19:22:49.821Z,96397.44
2022-12-01T19:25:16.417Z,96403.38
2022-12-01T19:27:42.929Z,96401.81
2022-12-01T19:30:10.058Z,96396.66
2022-12-01T19:32:36.704Z,96398.25
2022-12-01T19:35:03.556Z,96398.56
2022-12-01T19:37:30.093Z,96393.44
2022-12-01T19:39:57.575Z,96393.13
2022-12-01T19:42:26.139Z,96394.47
2022-12-01T19:44:52.839Z,96392.00
2022-12-01T19:47:22.459Z,96393.03
2022-12-01T19:49:49.336Z,96392.88
2022-12-01T19:52:16.085Z,96389.34
2022-12-01T19:54:42.803Z,96395.88
2022-12-01T19:57:09.363Z,96389.13
2022-12-01T19:59:35.934Z,96395.09
2022-12-01T20:02:02.740Z,96386.63
2022-12-01T20:04:29.326Z,96388.56
2022-12-01T20:06:55.842Z,96385.47
2022-12-01T20:09:22.766Z,96394.47
2022-12-01T20:11:49.307Z,96397.34
2022-12-01T20:14:16.257Z,96399.47
2022-12-01T20:16:42.802Z,96399.75
2022-12-01T20:19:10.897Z,96395.41
2022-12-01T20:21:44.541Z,96398.38
2022-12-01T20:24:13.926Z,96386.97
2022-12-01T20:26:43.569Z,96386.41
2022-12-01T20:29:13.512Z,96388.88
2022-12-01T20:31:41.740Z,96390.75
2022-12-01T20:34:12.805Z,96387.22
2022-12-01T20:36:41.049Z,96378.03
2022-12-01T20:39:09.271Z,96388.88
2022-12-01T20:41:36.698Z,96391.31
2022-12-01T20:44:07.272Z,96385.59
2022-12-01T20:46:35.129Z,96388.03
2022-12-01T20:49:01.842Z,96389.69
2022-12-01T20:51:28.509Z,96393.47
2022-12-01T20:54:26.280Z,96390.44
2022-12-01T20:56:41.984Z,96389.06
2022-12-01T20:59:08.528Z,96378.53
2022-12-01T21:01:35.595Z,96377.66
2022-12-01T21:04:02.496Z,96382.84
2022-12-01T21:06:29.273Z,96369.28
2022-12-01T21:08:56.161Z,96359.53
2022-12-01T21:11:42.984Z,96374.97
2022-12-01T21:14:36.635Z,96370.63
2022-12-01T21:17:29.465Z,96370.63
2022-12-01T21:20:05.272Z,96367.09
2022-12-01T21:22:31.965Z,96368.16
2022-12-01T21:25:18.934Z,96365.47
2022-12-01T21:27:47.225Z,96359.22
2022-12-01T21:30:22.511Z,96355.72
2022-12-01T21:32:49.577Z,96365.16
2022-12-01T21:35:19.250Z,96357.09
2022-12-01T21:37:47.216Z,96360.56
2022-12-01T21:40:20.314Z,96361.38
2022-12-01T21:42:47.177Z,96359.22
2022-12-01T21:45:26.530Z,96358.13
2022-12-01T21:47:57.266Z,96353.00
2022-12-01T21:50:25.331Z,96357.59
2022-12-01T21:52:51.926Z,96358.13
2022-12-01T21:55:18.382Z,96355.41
2022-12-01T21:57:47.741Z,96365.41
2022-12-01T22:00:29.205Z,96357.03
2022-12-01T22:03:01.338Z,96354.84
2022-12-01T22:05:35.181Z,96351.63
2022-12-01T22:08:13.690Z,96346.72
2022-12-01T22:10:52.621Z,96345.34
2022-12-01T22:13:23.245Z,96345.66
2022-12-01T22:15:50.566Z,96348.06
2022-12-01T22:18:23.946Z,96343.72
2022-12-01T22:20:50.497Z,96345.59
2022-12-01T22:23:18.809Z,96340.75
2022-12-01T22:25:46.452Z,96329.66
2022-12-01T22:28:21.911Z,96333.19
2022-12-01T22:30:48.837Z,96333.69
2022-12-01T22:33:23.912Z,96327.78
2022-12-01T22:35:52.520Z,96329.91
2022-12-01T22:38:24.987Z,96326.66
2022-12-01T22:40:55.872Z,96326.13
2022-12-01T22:43:50.706Z,96327.78
2022-12-01T22:46:27.769Z,96324.00
2022-12-01T22:48:57.222Z,96328.06
2022-12-01T22:51:28.415Z,96333.19
2022-12-01T22:54:28.702Z,96334.56
2022-12-01T22:57:16.712Z,96332.09
2022-12-01T22:59:44.671Z,96322.59
2022-12-01T23:02:20.604Z,96314.75
2022-12-01T23:04:48.997Z,96315.31
2022-12-01T23:07:35.296Z,96324.53
2022-12-01T23:10:20.510Z,96317.44
2022-12-01T23:12:49.483Z,96323.94
2022-12-01T23:15:32.851Z,96316.13
2022-12-01T23:18:16.078Z,96317.72
2022-12-01T23:20:44.167Z,96311.53
2022-12-01T23:23:16.614Z,96310.97
2022-12-01T23:25:44.752Z,96303.66
2022-12-01T23:28:13.007Z,96295.78
2022-12-01T23:30:42.346Z,96299.31
2022-12-01T23:33:08.860Z,96301.69
2022-12-01T23:35:41.438Z,96307.09
2022-12-01T23:38:31.070Z,96294.66
2022-12-01T23:41:01.176Z,96284.38
2022-12-01T23:43:31.751Z,96296.06
2022-12-01T23:46:04.657Z,96280.63
2022-12-01T23:48:37.911Z,96270.03
2022-12-01T23:51:10.024Z,96265.44
2022-12-01T23:53:39.315Z,96262.97
2022-12-01T23:56:10.226Z,96261.69
2022-12-01T23:58:36.746Z,96258.91
